createdAt,value
2019-02-21T00:01:41.503Z,14.40
2019-02-21T00:04:09.521Z,14.33
2019-02-21T00:06:39.016Z,9.17
2019-02-21T00:09:08.347Z,11.97
2019-02-21T00:11:38.321Z,16.27
2019-02-21T00:14:08.105Z,13.93
2019-02-21T00:16:37.433Z,13.13
2019-02-21T00:19:07.987Z,12.37
2019-02-21T00:21:37.329Z,10.43
2019-02-21T00:24:06.697Z,12.80
2019-02-21T00:26:36.136Z,10.83
2019-02-21T00:29:05.477Z,14.20
2019-02-21T00:31:34.747Z,12.37
2019-02-21T00:34:04.205Z,11.87
2019-02-21T00:36:33.448Z,13.07
2019-02-21T00:39:01.483Z,9.83
2019-02-21T00:41:29.503Z,14.90
2019-02-21T00:43:57.821Z,13.50
2019-02-21T00:46:25.938Z,13.23
2019-02-21T00:48:55.915Z,11.83
2019-02-21T00:51:23.988Z,12.53
2019-02-21T00:53:51.989Z,15.97
2019-02-21T00:56:20.032Z,14.60
2019-02-21T00:58:48.495Z,12.70
2019-02-21T01:01:16.634Z,11.23
2019-02-21T01:03:46.674Z,14.93
2019-02-21T01:06:14.680Z,11.73
2019-02-21T01:08:42.730Z,13.33
2019-02-21T01:11:10.710Z,16.57
2019-02-21T01:13:39.559Z,12.87
2019-02-21T01:16:07.562Z,11.30
2019-02-21T01:18:35.585Z,11.63
2019-02-21T01:21:03.605Z,13.80
2019-02-21T01:23:31.657Z,15.27
2019-02-21T01:26:00.157Z,13.70
2019-02-21T01:28:28.232Z,17.73
2019-02-21T01:30:57.156Z,15.00
2019-02-21T01:33:25.434Z,16.00
2019-02-21T01:35:53.405Z,17.93
2019-02-21T01:38:21.502Z,19.53
2019-02-21T01:40:49.520Z,13.60
2019-02-21T01:43:18.225Z,16.10
2019-02-21T01:45:46.202Z,20.93
2019-02-21T01:48:14.291Z,14.80
2019-02-21T01:50:42.586Z,20.80
2019-02-21T01:53:10.666Z,18.43
2019-02-21T01:55:38.673Z,16.90
2019-02-21T01:58:06.750Z,17.37
2019-02-21T02:00:35.722Z,21.07
2019-02-21T02:03:03.692Z,20.30
2019-02-21T02:05:31.715Z,20.77
2019-02-21T02:07:59.697Z,20.27
2019-02-21T02:10:28.031Z,21.13
2019-02-21T02:12:55.992Z,17.00
2019-02-21T02:15:24.031Z,19.93
2019-02-21T02:17:52.019Z,19.57
2019-02-21T02:20:20.041Z,22.83
2019-02-21T02:22:49.377Z,19.90
2019-02-21T02:25:17.474Z,22.17
2019-02-21T02:27:45.481Z,18.87
2019-02-21T02:30:13.557Z,19.70
2019-02-21T02:32:41.639Z,20.30
2019-02-21T02:35:09.669Z,23.50
2019-02-21T02:37:37.653Z,25.10
2019-02-21T02:40:05.993Z,21.03
2019-02-21T02:42:33.999Z,21.17
2019-02-21T02:45:02.061Z,24.23
2019-02-21T02:47:30.001Z,20.80
2019-02-21T02:49:58.020Z,19.87
2019-02-21T02:52:26.014Z,20.00
2019-02-21T02:54:54.025Z,22.33
2019-02-21T02:57:22.126Z,24.43
2019-02-21T02:59:50.148Z,25.50
2019-02-21T03:02:18.127Z,21.80
2019-02-21T03:04:46.179Z,24.27
2019-02-21T03:07:16.582Z,22.23
2019-02-21T03:09:44.578Z,20.07
2019-02-21T03:12:12.554Z,23.30
2019-02-21T03:14:40.549Z,24.20
2019-02-21T03:17:08.576Z,22.37
2019-02-21T03:19:36.617Z,22.67
2019-02-21T03:22:04.580Z,20.07
2019-02-21T03:24:32.719Z,28.10
2019-02-21T03:27:00.709Z,27.13
2019-02-21T03:29:28.788Z,26.33
2019-02-21T03:31:56.814Z,25.30
2019-02-21T03:34:24.870Z,22.57
2019-02-21T03:36:52.859Z,22.83
2019-02-21T03:39:20.873Z,27.60
2019-02-21T03:41:48.856Z,23.20
2019-02-21T03:44:21.089Z,27.53
2019-02-21T03:46:49.103Z,28.53
2019-02-21T03:49:17.103Z,27.63
2019-02-21T03:51:45.124Z,27.53
2019-02-21T03:54:14.578Z,24.10
2019-02-21T03:56:42.617Z,27.43
2019-02-21T03:59:10.604Z,27.67
2019-02-21T04:01:39.034Z,26.37
2019-02-21T04:04:07.045Z,28.17
2019-02-21T04:06:35.485Z,28.10
2019-02-21T04:09:04.050Z,27.93
2019-02-21T04:11:33.012Z,27.67
2019-02-21T04:14:01.006Z,32.43
2019-02-21T04:16:30.012Z,32.07
2019-02-21T04:18:58.074Z,32.70
2019-02-21T04:21:26.066Z,33.13
2019-02-21T04:23:54.050Z,25.87
2019-02-21T04:26:23.324Z,32.13
2019-02-21T04:28:51.570Z,35.40
2019-02-21T04:31:19.544Z,33.40
2019-02-21T04:33:48.926Z,32.73
2019-02-21T04:36:17.103Z,31.60
2019-02-21T04:38:45.412Z,34.77
2019-02-21T04:41:13.428Z,32.60
2019-02-21T04:43:41.541Z,31.80
2019-02-21T04:46:09.513Z,30.30
2019-02-21T04:48:37.584Z,61.20
2019-02-21T04:51:05.576Z,30.17
2019-02-21T04:53:33.621Z,31.07
2019-02-21T04:56:02.978Z,27.43
2019-02-21T04:58:31.205Z,34.37
2019-02-21T05:00:59.268Z,33.97
2019-02-21T05:03:27.376Z,32.03
2019-02-21T05:05:55.406Z,33.70
2019-02-21T05:08:23.474Z,35.40
2019-02-21T05:10:51.571Z,36.23
2019-02-21T05:13:19.588Z,37.20
2019-02-21T05:15:48.034Z,33.03
2019-02-21T05:18:16.098Z,33.37
2019-02-21T05:20:44.117Z,30.87
2019-02-21T05:23:12.183Z,30.07
2019-02-21T05:25:40.308Z,35.47
2019-02-21T05:28:36.666Z,36.07
2019-02-21T05:31:22.554Z,34.63
2019-02-21T05:33:58.318Z,36.03
2019-02-21T05:37:00.576Z,30.27
2019-02-21T05:39:56.413Z,34.13
2019-02-21T05:42:46.565Z,39.73
2019-02-21T05:45:20.736Z,34.50
2019-02-21T05:48:12.887Z,36.63
2019-02-21T05:50:48.858Z,36.27
2019-02-21T05:53:41.983Z,40.40
2019-02-21T05:56:44.384Z,32.50
2019-02-21T05:59:36.808Z,34.73
2019-02-21T06:02:17.282Z,35.87
2019-02-21T06:05:00.748Z,33.33
2019-02-21T06:07:34.438Z,36.30
2019-02-21T06:10:18.797Z,35.07
2019-02-21T06:13:20.779Z,35.53
2019-02-21T06:16:22.952Z,38.07
2019-02-21T06:19:12.866Z,38.50
2019-02-21T06:22:10.147Z,35.77
2019-02-21T06:24:36.643Z,34.70
2019-02-21T06:27:12.188Z,36.67
2019-02-21T06:29:52.161Z,36.80
2019-02-21T06:32:20.307Z,37.47
2019-02-21T06:34:48.408Z,35.13
2019-02-21T06:37:16.603Z,39.80
2019-02-21T06:39:46.273Z,36.70
2019-02-21T06:42:14.427Z,38.00
2019-02-21T06:44:44.086Z,33.23
2019-02-21T06:47:12.170Z,38.37
2019-02-21T06:49:40.163Z,40.87
2019-02-21T06:52:08.607Z,36.23
2019-02-21T06:54:36.748Z,36.85
2019-02-21T06:57:05.940Z,35.33
2019-02-21T06:59:43.376Z,33.57
2019-02-21T07:02:07.139Z,32.70
2019-02-21T07:04:36.486Z,33.30
2019-02-21T07:07:06.309Z,33.53
2019-02-21T07:09:34.489Z,32.45
2019-02-21T07:12:02.542Z,35.37
2019-02-21T07:14:30.572Z,33.63
2019-02-21T07:16:59.672Z,34.63
2019-02-21T07:19:30.259Z,32.13
2019-02-21T07:21:58.313Z,31.30
2019-02-21T07:24:27.360Z,33.10
2019-02-21T07:26:55.461Z,32.43
2019-02-21T07:29:23.766Z,33.87
2019-02-21T07:31:51.850Z,34.97
2019-02-21T07:34:20.471Z,31.70
2019-02-21T07:36:50.081Z,30.57
2019-02-21T07:39:20.712Z,31.63
2019-02-21T07:41:55.707Z,29.60
2019-02-21T07:44:23.671Z,29.40
2019-02-21T07:46:53.446Z,31.43
2019-02-21T07:49:21.794Z,31.90
2019-02-21T07:51:49.852Z,29.13
2019-02-21T07:54:17.901Z,32.87
2019-02-21T07:56:47.553Z,33.53
2019-02-21T07:59:16.323Z,34.10
2019-02-21T08:01:44.339Z,36.30
2019-02-21T08:04:12.424Z,36.73
2019-02-21T08:06:40.505Z,31.23
2019-02-21T08:09:09.060Z,31.87
2019-02-21T08:11:37.069Z,34.60
2019-02-21T08:14:06.016Z,34.23
2019-02-21T08:16:34.491Z,33.03
2019-02-21T08:19:04.614Z,38.67
2019-02-21T08:21:32.983Z,35.97
2019-02-21T08:24:00.984Z,32.87
2019-02-21T08:26:29.269Z,38.03
2019-02-21T08:28:57.386Z,36.40
2019-02-21T08:31:25.501Z,33.83
2019-02-21T08:34:05.997Z,35.23
2019-02-21T08:36:35.820Z,39.60
2019-02-21T08:39:05.281Z,38.83
2019-02-21T08:41:33.385Z,35.20
2019-02-21T08:44:01.460Z,34.23
2019-02-21T08:46:30.087Z,31.20
2019-02-21T08:48:58.233Z,34.17
2019-02-21T08:51:26.435Z,36.37
2019-02-21T08:53:54.406Z,31.90
2019-02-21T08:56:22.429Z,35.83
2019-02-21T08:58:50.407Z,35.17
2019-02-21T09:01:19.260Z,35.37
2019-02-21T09:03:47.199Z,35.20
2019-02-21T09:06:15.304Z,38.00
2019-02-21T09:08:43.330Z,34.47
2019-02-21T09:11:12.375Z,34.57
2019-02-21T09:13:41.741Z,32.83
2019-02-21T09:16:13.285Z,33.63
2019-02-21T09:18:41.854Z,36.80
2019-02-21T09:21:10.265Z,37.07
2019-02-21T09:23:38.713Z,37.13
2019-02-21T09:26:06.713Z,39.93
2019-02-21T09:28:34.769Z,35.57
2019-02-21T09:31:02.931Z,35.43
2019-02-21T09:33:31.007Z,34.77
2019-02-21T09:36:00.128Z,36.10
2019-02-21T09:38:28.175Z,34.07
2019-02-21T09:40:56.208Z,32.90
2019-02-21T09:43:24.381Z,31.77
2019-02-21T09:45:52.435Z,31.23
2019-02-21T09:48:20.498Z,30.37
2019-02-21T09:50:48.648Z,35.97
2019-02-21T09:53:16.719Z,28.40
2019-02-21T09:55:44.746Z,32.20
2019-02-21T09:58:12.793Z,31.33
2019-02-21T10:00:41.038Z,28.93
2019-02-21T10:03:09.042Z,30.40
2019-02-21T10:05:38.455Z,30.27
2019-02-21T10:08:06.478Z,32.63
2019-02-21T10:10:34.495Z,33.23
2019-02-21T10:13:02.537Z,30.93
2019-02-21T10:15:31.496Z,26.73
2019-02-21T10:17:59.692Z,27.23
2019-02-21T10:20:28.076Z,28.40
2019-02-21T10:22:56.081Z,25.07
2019-02-21T10:25:26.043Z,25.53
2019-02-21T10:27:54.064Z,26.80
2019-02-21T10:30:22.618Z,24.20
2019-02-21T10:32:50.638Z,25.40
2019-02-21T10:35:18.632Z,29.23
2019-02-21T10:37:46.654Z,26.23
2019-02-21T10:40:14.857Z,27.53
2019-02-21T10:42:43.133Z,21.47
2019-02-21T10:45:12.509Z,21.47
2019-02-21T10:47:40.713Z,22.30
2019-02-21T10:50:10.125Z,25.43
2019-02-21T10:52:38.246Z,20.33
2019-02-21T10:55:06.439Z,21.03
2019-02-21T10:57:34.606Z,20.43
2019-02-21T11:00:02.734Z,22.37
2019-02-21T11:02:35.694Z,22.93
2019-02-21T11:05:03.783Z,21.77
2019-02-21T11:07:31.905Z,21.50
2019-02-21T11:09:59.951Z,22.67
2019-02-21T11:12:28.073Z,21.87
2019-02-21T11:14:56.250Z,22.53
2019-02-21T11:17:26.762Z,17.87
2019-02-21T11:19:54.804Z,18.33
2019-02-21T11:22:22.855Z,22.53
2019-02-21T11:24:53.711Z,19.60
2019-02-21T11:27:22.168Z,21.17
2019-02-21T11:29:50.293Z,19.43
2019-02-21T11:32:18.296Z,16.83
2019-02-21T11:34:46.332Z,19.93
2019-02-21T11:37:14.343Z,20.10
2019-02-21T11:39:42.433Z,18.70
2019-02-21T11:42:10.748Z,18.43
2019-02-21T11:44:39.095Z,18.40
2019-02-21T11:47:07.136Z,19.43
2019-02-21T11:49:35.190Z,18.73
2019-02-21T11:52:10.143Z,18.57
2019-02-21T11:54:32.900Z,17.47
2019-02-21T11:57:01.041Z,18.90
2019-02-21T11:59:29.098Z,15.77
2019-02-21T12:02:00.918Z,20.77
2019-02-21T12:04:28.781Z,16.60
2019-02-21T12:06:57.016Z,19.17
2019-02-21T12:09:25.171Z,25.37
2019-02-21T12:11:53.210Z,18.07
2019-02-21T12:14:21.350Z,16.83
2019-02-21T12:16:49.424Z,15.97
2019-02-21T12:19:17.455Z,22.53
2019-02-21T12:21:58.403Z,21.43
2019-02-21T12:24:16.712Z,18.63
2019-02-21T12:26:47.193Z,20.43
2019-02-21T12:29:15.274Z,20.77
2019-02-21T12:31:43.277Z,17.20
2019-02-21T12:34:11.334Z,17.00
2019-02-21T12:36:39.557Z,21.53
2019-02-21T12:39:07.868Z,27.90
2019-02-21T12:41:37.739Z,17.63
2019-02-21T12:44:05.811Z,16.03
2019-02-21T12:46:33.831Z,18.60
2019-02-21T12:49:03.515Z,18.90
2019-02-21T12:51:31.686Z,15.03
2019-02-21T12:53:59.892Z,16.80
2019-02-21T12:56:27.875Z,15.53
2019-02-21T12:58:55.953Z,17.63
2019-02-21T13:01:23.970Z,16.57
2019-02-21T13:03:52.072Z,15.50
2019-02-21T13:06:20.094Z,20.60
2019-02-21T13:08:48.190Z,16.90
2019-02-21T13:11:16.211Z,14.60
2019-02-21T13:13:44.278Z,18.20
2019-02-21T13:16:12.357Z,19.50
2019-02-21T13:18:40.501Z,16.30
2019-02-21T13:21:08.600Z,20.67
2019-02-21T13:23:37.552Z,10.77
2019-02-21T13:26:05.653Z,14.13
2019-02-21T13:28:33.717Z,14.47
2019-02-21T13:31:02.588Z,9.53
2019-02-21T13:33:31.700Z,10.87
2019-02-21T13:35:59.781Z,17.07
2019-02-21T13:38:30.259Z,13.47
2019-02-21T13:40:58.356Z,12.90
2019-02-21T13:43:26.423Z,10.67
2019-02-21T13:45:54.390Z,10.80
2019-02-21T13:48:22.437Z,13.57
2019-02-21T13:50:50.560Z,14.37
2019-02-21T13:53:18.607Z,13.83
2019-02-21T13:55:46.623Z,17.60
2019-02-21T13:58:14.771Z,13.30
2019-02-21T14:00:43.090Z,9.93
2019-02-21T14:03:11.238Z,13.33
2019-02-21T14:05:39.403Z,12.00
2019-02-21T14:08:09.144Z,10.93
2019-02-21T14:10:37.442Z,13.63
2019-02-21T14:13:05.516Z,10.43
2019-02-21T14:15:33.483Z,10.70
2019-02-21T14:18:04.008Z,10.60
2019-02-21T14:20:32.180Z,14.10
2019-02-21T14:23:00.499Z,10.77
2019-02-21T14:25:39.872Z,11.93
2019-02-21T14:27:58.316Z,12.13
2019-02-21T14:30:27.400Z,12.77
2019-02-21T14:32:55.447Z,10.00
2019-02-21T14:35:23.661Z,9.83
2019-02-21T14:37:51.788Z,11.47
2019-02-21T14:40:19.849Z,11.63
2019-02-21T14:42:47.957Z,11.60
2019-02-21T14:45:16.572Z,12.00
2019-02-21T14:47:45.285Z,13.67
2019-02-21T14:50:13.485Z,16.77
2019-02-21T14:52:41.563Z,12.93
2019-02-21T14:55:10.122Z,14.93
2019-02-21T14:57:41.222Z,13.40
2019-02-21T15:00:12.222Z,14.53
2019-02-21T15:02:40.234Z,17.60
2019-02-21T15:05:10.098Z,11.97
2019-02-21T15:07:38.561Z,12.80
2019-02-21T15:10:08.096Z,14.70
2019-02-21T15:12:37.375Z,16.47
2019-02-21T15:15:05.757Z,13.47
2019-02-21T15:17:34.796Z,15.73
2019-02-21T15:20:04.088Z,15.33
2019-02-21T15:22:32.349Z,15.73
2019-02-21T15:25:00.724Z,15.57
2019-02-21T15:27:29.022Z,17.67
2019-02-21T15:29:57.524Z,17.50
2019-02-21T15:32:25.801Z,17.43
2019-02-21T15:34:57.090Z,16.37
2019-02-21T15:37:25.121Z,16.77
2019-02-21T15:39:53.331Z,19.07
2019-02-21T15:42:22.142Z,14.93
2019-02-21T15:44:50.191Z,17.13
2019-02-21T15:47:18.445Z,15.20
2019-02-21T15:49:46.558Z,13.93
2019-02-21T15:52:22.189Z,19.83
2019-02-21T15:54:47.970Z,19.37
2019-02-21T15:57:16.624Z,18.50
2019-02-21T15:59:46.257Z,18.13
2019-02-21T16:02:14.329Z,22.13
2019-02-21T16:04:42.916Z,20.70
2019-02-21T16:07:14.027Z,17.50
2019-02-21T16:09:42.172Z,17.77
2019-02-21T16:12:10.238Z,17.10
2019-02-21T16:14:38.393Z,15.23
2019-02-21T16:17:06.371Z,16.47
2019-02-21T16:19:34.479Z,17.17
2019-02-21T16:22:02.475Z,17.37
2019-02-21T16:24:30.783Z,15.27
2019-02-21T16:26:59.438Z,17.13
2019-02-21T16:29:27.578Z,15.07
2019-02-21T16:31:57.643Z,16.03
2019-02-21T16:34:25.357Z,16.17
2019-02-21T16:37:02.115Z,16.53
2019-02-21T16:39:23.793Z,15.53
2019-02-21T16:41:51.951Z,16.90
2019-02-21T16:44:19.988Z,17.17
2019-02-21T16:46:48.616Z,18.70
2019-02-21T16:49:16.749Z,17.53
2019-02-21T16:51:44.842Z,17.80
2019-02-21T16:54:12.865Z,18.03
2019-02-21T16:56:41.508Z,20.67
2019-02-21T16:59:09.824Z,16.93
2019-02-21T17:01:39.744Z,16.53
2019-02-21T17:04:07.832Z,18.48
2019-02-21T17:06:36.025Z,20.80
2019-02-21T17:09:05.493Z,16.30
2019-02-21T17:11:33.455Z,17.70
2019-02-21T17:14:01.597Z,14.33
2019-02-21T17:16:30.137Z,16.10
2019-02-21T17:18:58.187Z,16.13
2019-02-21T17:21:26.266Z,13.90
2019-02-21T17:23:54.443Z,18.57
2019-02-21T17:26:22.487Z,21.77
2019-02-21T17:28:50.555Z,18.17
2019-02-21T17:31:18.626Z,16.43
2019-02-21T17:33:46.979Z,17.87
2019-02-21T17:36:21.215Z,15.57
2019-02-21T17:38:49.499Z,15.97
2019-02-21T17:41:17.535Z,17.87
2019-02-21T17:43:47.900Z,19.83
2019-02-21T17:46:15.448Z,14.53
2019-02-21T17:48:43.743Z,15.43
2019-02-21T17:51:11.942Z,15.97
2019-02-21T17:53:40.015Z,16.30
2019-02-21T17:56:08.060Z,16.03
2019-02-21T17:58:36.205Z,18.63
2019-02-21T18:01:05.123Z,18.03
2019-02-21T18:03:33.914Z,20.27
2019-02-21T18:06:02.083Z,19.90
2019-02-21T18:08:30.161Z,24.77
2019-02-21T18:10:58.231Z,22.23
2019-02-21T18:13:26.357Z,26.93
2019-02-21T18:15:55.584Z,28.03
2019-02-21T18:18:23.755Z,28.57
2019-02-21T18:20:52.116Z,31.10
2019-02-21T18:23:20.376Z,29.90
2019-02-21T18:25:52.672Z,37.63
2019-02-21T18:28:28.504Z,38.03
2019-02-21T18:30:57.092Z,31.97
2019-02-21T18:33:25.424Z,28.27
2019-02-21T18:35:58.229Z,34.30
2019-02-21T18:38:27.772Z,32.17
2019-02-21T18:40:58.314Z,32.70
2019-02-21T18:43:29.986Z,33.13
2019-02-21T18:45:58.794Z,34.70
2019-02-21T18:48:26.896Z,30.70
2019-02-21T18:50:56.271Z,34.80
2019-02-21T18:53:24.804Z,37.90
2019-02-21T18:55:57.137Z,37.83
2019-02-21T18:58:27.960Z,34.03
2019-02-21T19:00:57.179Z,37.23
2019-02-21T19:03:25.488Z,36.67
2019-02-21T19:05:57.039Z,37.50
2019-02-21T19:08:28.667Z,37.87
2019-02-21T19:10:57.118Z,36.47
2019-02-21T19:13:25.457Z,42.53
2019-02-21T19:15:54.885Z,40.83
2019-02-21T19:18:24.271Z,38.83
2019-02-21T19:20:52.719Z,42.90
2019-02-21T19:23:21.873Z,38.80
2019-02-21T19:25:50.066Z,46.60
2019-02-21T19:28:18.142Z,48.33
2019-02-21T19:30:51.392Z,45.67
2019-02-21T19:33:19.422Z,52.50
2019-02-21T19:35:48.613Z,44.27
2019-02-21T19:38:16.723Z,47.53
2019-02-21T19:40:44.837Z,47.07
2019-02-21T19:43:12.968Z,47.90
2019-02-21T19:45:41.030Z,44.20
2019-02-21T19:48:09.057Z,44.87
2019-02-21T19:50:44.968Z,52.97
2019-02-21T19:53:14.459Z,46.40
2019-02-21T19:55:42.715Z,50.00
2019-02-21T19:58:10.725Z,54.95
2019-02-21T20:00:38.802Z,51.00
2019-02-21T20:03:06.902Z,53.57
2019-02-21T20:05:35.012Z,54.20
2019-02-21T20:08:08.559Z,53.23
2019-02-21T20:10:36.256Z,56.10
2019-02-21T20:13:08.491Z,53.73
2019-02-21T20:15:39.979Z,56.23
2019-02-21T20:18:11.966Z,63.83
2019-02-21T20:20:40.166Z,59.10
2019-02-21T20:23:08.940Z,61.13
2019-02-21T20:26:18.477Z,63.27
2019-02-21T20:28:43.824Z,67.47
2019-02-21T20:31:12.682Z,65.67
2019-02-21T20:33:40.775Z,67.87
2019-02-21T20:36:09.039Z,55.40
2019-02-21T20:38:37.178Z,61.03
2019-02-21T20:41:05.370Z,62.90
2019-02-21T20:43:36.165Z,61.17
2019-02-21T20:46:04.298Z,62.60
2019-02-21T20:48:33.342Z,69.83
2019-02-21T20:51:02.420Z,65.27
2019-02-21T20:53:31.079Z,65.73
2019-02-21T20:55:59.295Z,67.37
2019-02-21T20:58:28.205Z,69.17
2019-02-21T21:00:57.146Z,67.30
2019-02-21T21:03:26.221Z,74.37
2019-02-21T21:05:56.612Z,67.07
2019-02-21T21:08:25.780Z,65.00
2019-02-21T21:10:54.695Z,62.07
2019-02-21T21:13:24.154Z,62.10
2019-02-21T21:15:52.291Z,64.43
2019-02-21T21:18:21.444Z,59.90
2019-02-21T21:20:51.040Z,60.63
2019-02-21T21:23:23.074Z,61.10
2019-02-21T21:25:54.282Z,64.27
2019-02-21T21:28:23.539Z,62.07
2019-02-21T21:30:51.910Z,64.37
2019-02-21T21:33:20.095Z,60.00
2019-02-21T21:35:48.557Z,64.47
2019-02-21T21:38:24.174Z,62.07
2019-02-21T21:40:47.098Z,55.83
2019-02-21T21:43:17.548Z,62.27
2019-02-21T21:45:46.042Z,57.53
2019-02-21T21:48:15.350Z,53.73
2019-02-21T21:50:45.661Z,61.57
2019-02-21T21:53:14.770Z,57.57
2019-02-21T21:55:43.323Z,61.70
2019-02-21T21:58:12.989Z,59.80
2019-02-21T22:00:43.138Z,57.93
2019-02-21T22:03:11.438Z,59.00
2019-02-21T22:05:40.171Z,52.20
2019-02-21T22:08:08.773Z,55.53
2019-02-21T22:10:38.193Z,53.53
2019-02-21T22:13:06.598Z,51.40
2019-02-21T22:15:35.382Z,52.27
2019-02-21T22:18:04.286Z,53.17
2019-02-21T22:20:32.347Z,54.20
2019-02-21T22:23:02.148Z,52.93
2019-02-21T22:25:33.720Z,51.70
2019-02-21T22:28:02.962Z,46.93
2019-02-21T22:30:32.021Z,49.90
2019-02-21T22:33:00.190Z,51.27
2019-02-21T22:35:28.604Z,54.00
2019-02-21T22:37:56.642Z,53.70
2019-02-21T22:40:24.742Z,57.67
2019-02-21T22:42:52.869Z,55.43
2019-02-21T22:45:20.853Z,51.50
2019-02-21T22:47:49.309Z,58.80
2019-02-21T22:50:17.408Z,56.93
2019-02-21T22:52:46.673Z,61.30
2019-02-21T22:55:15.296Z,57.77
2019-02-21T22:57:43.323Z,61.17
2019-02-21T23:00:37.834Z,59.87
2019-02-21T23:03:06.071Z,61.07
2019-02-21T23:06:08.623Z,62.43
2019-02-21T23:08:49.082Z,70.67
2019-02-21T23:11:17.094Z,67.43
2019-02-21T23:13:45.831Z,67.00
2019-02-21T23:16:14.535Z,64.63
2019-02-21T23:18:43.055Z,66.13
2019-02-21T23:21:11.656Z,61.43
2019-02-21T23:23:40.089Z,61.77
2019-02-21T23:26:09.014Z,59.70
2019-02-21T23:28:36.969Z,56.97
2019-02-21T23:31:05.039Z,55.53
2019-02-21T23:33:35.222Z,54.53
2019-02-21T23:36:03.223Z,50.47
2019-02-21T23:38:31.719Z,59.13
2019-02-21T23:40:59.822Z,52.93
2019-02-21T23:43:27.874Z,51.43
2019-02-21T23:45:55.877Z,48.90
2019-02-21T23:48:23.935Z,44.73
2019-02-21T23:50:52.103Z,43.90
2019-02-21T23:53:20.219Z,44.60
2019-02-21T23:55:48.392Z,41.97
2019-02-21T23:58:16.455Z,40.67
